sensor_id;sensor_type;location;lat;lon;timestamp;temperature;humidity
54960;DHT22;40860;51.710;8.736;2024-03-23T00:56:16;7.60;99.90
54960;DHT22;40860;51.710;8.736;2024-03-23T01:04:20;7.40;99.90
54960;DHT22;40860;51.710;8.736;2024-03-23T01:08:22;7.40;99.90
54960;DHT22;40860;51.710;8.736;2024-03-23T01:12:25;7.30;99.90
54960;DHT22;40860;51.710;8.736;2024-03-23T01:16:27;7.30;99.90
54960;DHT22;40860;51.710;8.736;2024-03-23T01:20:29;7.30;99.90
54960;DHT22;40860;51.710;8.736;2024-03-23T01:24:31;7.30;99.90
54960;DHT22;40860;51.710;8.736;2024-03-23T01:28:35;7.30;99.90
54960;DHT22;40860;51.710;8.736;2024-03-23T01:32:37;7.30;99.90
54960;DHT22;40860;51.710;8.736;2024-03-23T01:36:39;7.30;99.90
54960;DHT22;40860;51.710;8.736;2024-03-23T01:40:41;7.30;99.90
54960;DHT22;40860;51.710;8.736;2024-03-23T01:44:44;7.30;99.90
54960;DHT22;40860;51.710;8.736;2024-03-23T01:48:46;7.30;99.90
54960;DHT22;40860;51.710;8.736;2024-03-23T01:52:48;7.30;99.90
54960;DHT22;40860;51.710;8.736;2024-03-23T01:56:51;7.30;99.90
54960;DHT22;40860;51.710;8.736;2024-03-23T02:00:54;7.30;99.90
54960;DHT22;40860;51.710;8.736;2024-03-23T02:04:56;7.30;99.90
54960;DHT22;40860;51.710;8.736;2024-03-23T02:08:58;7.30;99.90
54960;DHT22;40860;51.710;8.736;2024-03-23T02:13:00;7.20;99.90
54960;DHT22;40860;51.710;8.736;2024-03-23T02:17:03;7.20;99.90
54960;DHT22;40860;51.710;8.736;2024-03-23T02:21:05;7.20;99.90
54960;DHT22;40860;51.710;8.736;2024-03-23T02:25:08;7.20;99.90
54960;DHT22;40860;51.710;8.736;2024-03-23T02:29:13;7.20;99.90
54960;DHT22;40860;51.710;8.736;2024-03-23T02:33:15;7.20;99.90
54960;DHT22;40860;51.710;8.736;2024-03-23T02:37:17;7.10;99.90
54960;DHT22;40860;51.710;8.736;2024-03-23T02:41:20;7.10;99.90
54960;DHT22;40860;51.710;8.736;2024-03-23T02:45:24;7.10;99.90
54960;DHT22;40860;51.710;8.736;2024-03-23T02:49:27;7.20;99.90
54960;DHT22;40860;51.710;8.736;2024-03-23T02:53:28;7.10;99.90
54960;DHT22;40860;51.710;8.736;2024-03-23T02:57:32;7.00;99.90
54960;DHT22;40860;51.710;8.736;2024-03-23T03:01:34;7.00;99.90
54960;DHT22;40860;51.710;8.736;2024-03-23T03:05:36;7.00;99.90
54960;DHT22;40860;51.710;8.736;2024-03-23T03:09:38;6.90;99.90
54960;DHT22;40860;51.710;8.736;2024-03-23T03:13:42;6.90;99.90
54960;DHT22;40860;51.710;8.736;2024-03-23T03:17:44;6.80;99.90
54960;DHT22;40860;51.710;8.736;2024-03-23T03:21:46;6.80;99.90
54960;DHT22;40860;51.710;8.736;2024-03-23T03:25:48;6.80;99.90
54960;DHT22;40860;51.710;8.736;2024-03-23T03:29:52;6.80;99.90
54960;DHT22;40860;51.710;8.736;2024-03-23T03:33:53;6.80;99.90
54960;DHT22;40860;51.710;8.736;2024-03-23T03:37:55;6.80;99.90
54960;DHT22;40860;51.710;8.736;2024-03-23T03:41:57;6.70;99.90
54960;DHT22;40860;51.710;8.736;2024-03-23T03:46:02;6.80;99.90
54960;DHT22;40860;51.710;8.736;2024-03-23T03:50:05;6.80;99.90
54960;DHT22;40860;51.710;8.736;2024-03-23T03:54:07;6.70;99.90
54960;DHT22;40860;51.710;8.736;2024-03-23T03:58:09;6.60;99.90
54960;DHT22;40860;51.710;8.736;2024-03-23T04:02:13;6.60;99.90
54960;DHT22;40860;51.710;8.736;2024-03-23T04:10:21;6.50;99.90
54960;DHT22;40860;51.710;8.736;2024-03-23T04:14:23;6.50;99.90
54960;DHT22;40860;51.710;8.736;2024-03-23T04:18:26;6.50;99.90
54960;DHT22;40860;51.710;8.736;2024-03-23T04:22:28;6.50;99.90
54960;DHT22;40860;51.710;8.736;2024-03-23T04:26:30;6.50;99.90
54960;DHT22;40860;51.710;8.736;2024-03-23T04:30:32;6.40;99.90
54960;DHT22;40860;51.710;8.736;2024-03-23T04:34:35;6.40;99.90
54960;DHT22;40860;51.710;8.736;2024-03-23T04:38:37;6.30;99.90
54960;DHT22;40860;51.710;8.736;2024-03-23T04:42:39;6.30;99.90
54960;DHT22;40860;51.710;8.736;2024-03-23T04:46:41;6.20;99.90
54960;DHT22;40860;51.710;8.736;2024-03-23T04:50:44;6.10;99.90
54960;DHT22;40860;51.710;8.736;2024-03-23T04:54:48;6.00;99.90
54960;DHT22;40860;51.710;8.736;2024-03-23T04:58:50;5.90;99.90
54960;DHT22;40860;51.710;8.736;2024-03-23T05:02:51;5.90;99.90
54960;DHT22;40860;51.710;8.736;2024-03-23T05:06:55;5.90;99.90
54960;DHT22;40860;51.710;8.736;2024-03-23T05:10:56;5.90;99.90
54960;DHT22;40860;51.710;8.736;2024-03-23T05:14:58;5.90;99.90
54960;DHT22;40860;51.710;8.736;2024-03-23T05:19:00;5.80;99.90
54960;DHT22;40860;51.710;8.736;2024-03-23T05:23:04;5.80;99.90
54960;DHT22;40860;51.710;8.736;2024-03-23T05:27:06;5.90;99.90
54960;DHT22;40860;51.710;8.736;2024-03-23T05:31:09;5.80;99.90
54960;DHT22;40860;51.710;8.736;2024-03-23T05:35:11;5.80;99.90
54960;DHT22;40860;51.710;8.736;2024-03-23T05:39:14;5.80;99.90
54960;DHT22;40860;51.710;8.736;2024-03-23T05:43:17;5.70;99.90
54960;DHT22;40860;51.710;8.736;2024-03-23T05:47:19;5.80;99.90
54960;DHT22;40860;51.710;8.736;2024-03-23T05:51:20;5.80;99.90
54960;DHT22;40860;51.710;8.736;2024-03-23T05:55:23;5.80;99.90
54960;DHT22;40860;51.710;8.736;2024-03-23T05:59:25;5.80;99.90
54960;DHT22;40860;51.710;8.736;2024-03-23T06:03:28;5.80;99.90
54960;DHT22;40860;51.710;8.736;2024-03-23T06:07:30;5.80;99.90
54960;DHT22;40860;51.710;8.736;2024-03-23T06:11:33;5.70;99.90
54960;DHT22;40860;51.710;8.736;2024-03-23T06:15:35;5.70;99.90
54960;DHT22;40860;51.710;8.736;2024-03-23T06:19:38;5.70;99.90
54960;DHT22;40860;51.710;8.736;2024-03-23T06:23:40;5.70;99.90
54960;DHT22;40860;51.710;8.736;2024-03-23T06:27:43;5.80;99.90
54960;DHT22;40860;51.710;8.736;2024-03-23T06:31:53;5.80;99.90
54960;DHT22;40860;51.710;8.736;2024-03-23T06:35:55;5.80;99.90
54960;DHT22;40860;51.710;8.736;2024-03-23T06:39:58;5.80;99.90
54960;DHT22;40860;51.710;8.736;2024-03-23T06:44:01;5.90;99.90
54960;DHT22;40860;51.710;8.736;2024-03-23T06:48:04;5.90;99.90
54960;DHT22;40860;51.710;8.736;2024-03-23T06:52:08;5.90;99.90
54960;DHT22;40860;51.710;8.736;2024-03-23T06:56:10;5.90;99.90
54960;DHT22;40860;51.710;8.736;2024-03-23T07:00:14;5.90;99.90
54960;DHT22;40860;51.710;8.736;2024-03-23T07:04:16;5.90;99.90
54960;DHT22;40860;51.710;8.736;2024-03-23T07:08:19;5.90;99.90
54960;DHT22;40860;51.710;8.736;2024-03-23T07:12:23;5.90;99.90
54960;DHT22;40860;51.710;8.736;2024-03-23T07:16:28;5.90;99.90
54960;DHT22;40860;51.710;8.736;2024-03-23T07:20:30;6.00;99.90
54960;DHT22;40860;51.710;8.736;2024-03-23T07:24:32;6.00;99.90
54960;DHT22;40860;51.710;8.736;2024-03-23T07:28:34;6.00;99.90
54960;DHT22;40860;51.710;8.736;2024-03-23T07:32:38;6.00;99.90
54960;DHT22;40860;51.710;8.736;2024-03-23T07:36:40;6.10;99.90
54960;DHT22;40860;51.710;8.736;2024-03-23T07:40:42;6.20;99.90
54960;DHT22;40860;51.710;8.736;2024-03-23T07:44:44;6.20;99.90
54960;DHT22;40860;51.710;8.736;2024-03-23T07:48:48;6.30;99.90
54960;DHT22;40860;51.710;8.736;2024-03-23T07:52:50;6.30;99.90
54960;DHT22;40860;51.710;8.736;2024-03-23T07:56:52;6.30;99.90
54960;DHT22;40860;51.710;8.736;2024-03-23T08:00:54;6.40;99.90
54960;DHT22;40860;51.710;8.736;2024-03-23T08:04:58;6.50;99.90
54960;DHT22;40860;51.710;8.736;2024-03-23T08:09:00;6.60;99.90
54960;DHT22;40860;51.710;8.736;2024-03-23T08:13:02;6.60;99.90
54960;DHT22;40860;51.710;8.736;2024-03-23T08:17:07;6.60;99.90
54960;DHT22;40860;51.710;8.736;2024-03-23T08:21:10;6.60;99.90
54960;DHT22;40860;51.710;8.736;2024-03-23T08:25:12;6.80;99.90
54960;DHT22;40860;51.710;8.736;2024-03-23T08:29:14;7.00;99.90
54960;DHT22;40860;51.710;8.736;2024-03-23T08:33:16;7.10;99.90
54960;DHT22;40860;51.710;8.736;2024-03-23T08:37:19;7.40;99.90
54960;DHT22;40860;51.710;8.736;2024-03-23T08:41:21;7.50;99.90
54960;DHT22;40860;51.710;8.736;2024-03-23T08:45:24;7.50;99.90
54960;DHT22;40860;51.710;8.736;2024-03-23T08:49:26;7.50;99.90
54960;DHT22;40860;51.710;8.736;2024-03-23T08:53:30;7.60;99.90
54960;DHT22;40860;51.710;8.736;2024-03-23T08:57:32;7.80;99.90
54960;DHT22;40860;51.710;8.736;2024-03-23T09:01:34;7.90;99.90
54960;DHT22;40860;51.710;8.736;2024-03-23T09:05:39;7.90;99.90
54960;DHT22;40860;51.710;8.736;2024-03-23T09:09:43;7.90;99.90
54960;DHT22;40860;51.710;8.736;2024-03-23T09:13:45;8.10;99.90
54960;DHT22;40860;51.710;8.736;2024-03-23T09:17:47;8.60;99.90
54960;DHT22;40860;51.710;8.736;2024-03-23T09:21:49;9.20;99.90
54960;DHT22;40860;51.710;8.736;2024-03-23T09:25:53;9.30;99.90
54960;DHT22;40860;51.710;8.736;2024-03-23T09:29:54;9.20;99.90
54960;DHT22;40860;51.710;8.736;2024-03-23T09:33:57;9.30;99.90
54960;DHT22;40860;51.710;8.736;2024-03-23T09:37:59;9.10;99.90
54960;DHT22;40860;51.710;8.736;2024-03-23T09:42:02;8.90;99.90
54960;DHT22;40860;51.710;8.736;2024-03-23T09:46:05;8.90;99.90
54960;DHT22;40860;51.710;8.736;2024-03-23T09:50:07;8.80;99.90
54960;DHT22;40860;51.710;8.736;2024-03-23T09:54:10;8.80;99.90
54960;DHT22;40860;51.710;8.736;2024-03-23T09:58:15;8.80;99.90
54960;DHT22;40860;51.710;8.736;2024-03-23T10:02:17;8.70;99.90
54960;DHT22;40860;51.710;8.736;2024-03-23T10:06:22;9.00;99.90
54960;DHT22;40860;51.710;8.736;2024-03-23T10:10:25;9.60;99.90
54960;DHT22;40860;51.710;8.736;2024-03-23T10:14:30;10.00;99.90
54960;DHT22;40860;51.710;8.736;2024-03-23T10:18:37;10.30;99.90
54960;DHT22;40860;51.710;8.736;2024-03-23T10:22:40;10.10;99.90
54960;DHT22;40860;51.710;8.736;2024-03-23T10:26:43;10.00;99.90
54960;DHT22;40860;51.710;8.736;2024-03-23T10:31:08;10.00;99.90
54960;DHT22;40860;51.710;8.736;2024-03-23T10:35:17;10.30;99.00
54960;DHT22;40860;51.710;8.736;2024-03-23T10:39:21;10.30;98.60
54960;DHT22;40860;51.710;8.736;2024-03-23T10:43:24;10.40;99.00
54960;DHT22;40860;51.710;8.736;2024-03-23T10:47:48;10.50;99.30
54960;DHT22;40860;51.710;8.736;2024-03-23T10:52:01;10.20;99.60
54960;DHT22;40860;51.710;8.736;2024-03-23T10:56:33;9.80;99.30
54960;DHT22;40860;51.710;8.736;2024-03-23T11:15:50;6.20;99.90
54960;DHT22;40860;51.710;8.736;2024-03-23T11:19:56;6.60;99.90
54960;DHT22;40860;51.710;8.736;2024-03-23T11:24:13;6.80;99.90
54960;DHT22;40860;51.710;8.736;2024-03-23T11:28:15;6.90;99.90
54960;DHT22;40860;51.710;8.736;2024-03-23T11:32:19;6.60;99.90
54960;DHT22;40860;51.710;8.736;2024-03-23T11:36:22;6.30;99.90
54960;DHT22;40860;51.710;8.736;2024-03-23T11:40:26;6.10;99.90
54960;DHT22;40860;51.710;8.736;2024-03-23T11:44:31;6.70;99.90
54960;DHT22;40860;51.710;8.736;2024-03-23T11:48:34;7.20;99.90
54960;DHT22;40860;51.710;8.736;2024-03-23T11:52:40;7.70;99.90
54960;DHT22;40860;51.710;8.736;2024-03-23T11:56:54;8.10;99.90
54960;DHT22;40860;51.710;8.736;2024-03-23T12:00:58;8.30;99.90
54960;DHT22;40860;51.710;8.736;2024-03-23T12:05:15;8.40;99.90
54960;DHT22;40860;51.710;8.736;2024-03-23T12:09:17;8.50;99.90
54960;DHT22;40860;51.710;8.736;2024-03-23T12:13:21;8.40;99.90
54960;DHT22;40860;51.710;8.736;2024-03-23T12:17:23;8.30;99.90
54960;DHT22;40860;51.710;8.736;2024-03-23T12:21:31;8.20;99.90
54960;DHT22;40860;51.710;8.736;2024-03-23T12:25:38;8.10;99.90
54960;DHT22;40860;51.710;8.736;2024-03-23T12:29:43;8.10;99.90
54960;DHT22;40860;51.710;8.736;2024-03-23T12:33:48;8.10;99.90
54960;DHT22;40860;51.710;8.736;2024-03-23T12:37:56;8.30;99.90
54960;DHT22;40860;51.710;8.736;2024-03-23T12:41:58;8.50;99.90
54960;DHT22;40860;51.710;8.736;2024-03-23T12:46:00;8.50;99.90
54960;DHT22;40860;51.710;8.736;2024-03-23T12:50:03;8.50;99.90
54960;DHT22;40860;51.710;8.736;2024-03-23T12:54:08;8.30;99.90
54960;DHT22;40860;51.710;8.736;2024-03-23T12:58:10;7.70;99.90
54960;DHT22;40860;51.710;8.736;2024-03-23T13:02:14;7.10;99.90
54960;DHT22;40860;51.710;8.736;2024-03-23T13:06:18;6.80;99.90
54960;DHT22;40860;51.710;8.736;2024-03-23T13:10:23;6.90;99.90
54960;DHT22;40860;51.710;8.736;2024-03-23T13:14:25;7.00;99.90
54960;DHT22;40860;51.710;8.736;2024-03-23T13:18:29;7.10;99.90
54960;DHT22;40860;51.710;8.736;2024-03-23T13:22:34;7.20;99.90
54960;DHT22;40860;51.710;8.736;2024-03-23T13:26:38;7.50;99.90
54960;DHT22;40860;51.710;8.736;2024-03-23T13:30:50;7.70;99.90
54960;DHT22;40860;51.710;8.736;2024-03-23T13:34:52;7.90;99.90
54960;DHT22;40860;51.710;8.736;2024-03-23T13:38:54;8.10;99.90
54960;DHT22;40860;51.710;8.736;2024-03-23T13:43:01;8.10;99.90
54960;DHT22;40860;51.710;8.736;2024-03-23T13:47:04;8.30;99.90
54960;DHT22;40860;51.710;8.736;2024-03-23T13:51:06;8.30;99.90
54960;DHT22;40860;51.710;8.736;2024-03-23T13:55:09;8.40;99.90
54960;DHT22;40860;51.710;8.736;2024-03-23T13:59:14;8.50;99.90
54960;DHT22;40860;51.710;8.736;2024-03-23T14:03:16;8.50;99.90
54960;DHT22;40860;51.710;8.736;2024-03-23T14:07:19;8.60;99.90
54960;DHT22;40860;51.710;8.736;2024-03-23T14:11:21;8.80;99.90
54960;DHT22;40860;51.710;8.736;2024-03-23T14:15:26;8.90;99.90
54960;DHT22;40860;51.710;8.736;2024-03-23T14:19:29;9.00;99.90
54960;DHT22;40860;51.710;8.736;2024-03-23T14:23:33;9.00;99.90
54960;DHT22;40860;51.710;8.736;2024-03-23T14:27:36;8.60;99.50
54960;DHT22;40860;51.710;8.736;2024-03-23T14:31:39;7.70;99.90
54960;DHT22;40860;51.710;8.736;2024-03-23T14:35:42;7.10;99.90
54960;DHT22;40860;51.710;8.736;2024-03-23T14:39:44;7.00;99.90
54960;DHT22;40860;51.710;8.736;2024-03-23T14:43:47;7.40;99.90
54960;DHT22;40860;51.710;8.736;2024-03-23T14:47:53;7.90;99.90
54960;DHT22;40860;51.710;8.736;2024-03-23T14:51:55;8.40;99.90
54960;DHT22;40860;51.710;8.736;2024-03-23T14:55:59;9.00;99.90
54960;DHT22;40860;51.710;8.736;2024-03-23T15:00:05;9.40;99.50
54960;DHT22;40860;51.710;8.736;2024-03-23T15:04:11;9.50;99.10
54960;DHT22;40860;51.710;8.736;2024-03-23T15:08:12;9.20;99.20
54960;DHT22;40860;51.710;8.736;2024-03-23T15:12:16;8.90;99.00
54960;DHT22;40860;51.710;8.736;2024-03-23T15:16:18;8.60;99.60
54960;DHT22;40860;51.710;8.736;2024-03-23T15:20:22;8.10;99.70
54960;DHT22;40860;51.710;8.736;2024-03-23T15:24:24;7.60;99.90
54960;DHT22;40860;51.710;8.736;2024-03-23T15:28:27;7.50;99.90
54960;DHT22;40860;51.710;8.736;2024-03-23T15:32:38;7.50;99.90
54960;DHT22;40860;51.710;8.736;2024-03-23T15:36:45;7.70;99.90
54960;DHT22;40860;51.710;8.736;2024-03-23T15:40:51;8.00;99.90
54960;DHT22;40860;51.710;8.736;2024-03-23T15:44:57;8.50;99.90
54960;DHT22;40860;51.710;8.736;2024-03-23T15:49:00;8.90;99.90
54960;DHT22;40860;51.710;8.736;2024-03-23T15:53:03;9.20;99.90
54960;DHT22;40860;51.710;8.736;2024-03-23T15:57:05;9.50;99.90
54960;DHT22;40860;51.710;8.736;2024-03-23T16:01:08;9.80;99.90
54960;DHT22;40860;51.710;8.736;2024-03-23T16:05:11;9.90;99.90
54960;DHT22;40860;51.710;8.736;2024-03-23T16:09:15;9.90;98.40
54960;DHT22;40860;51.710;8.736;2024-03-23T16:13:20;10.00;97.80
54960;DHT22;40860;51.710;8.736;2024-03-23T16:17:22;10.00;96.60
54960;DHT22;40860;51.710;8.736;2024-03-23T16:21:26;10.00;96.10
54960;DHT22;40860;51.710;8.736;2024-03-23T16:25:29;9.80;96.10
54960;DHT22;40860;51.710;8.736;2024-03-23T16:29:31;9.70;95.50
54960;DHT22;40860;51.710;8.736;2024-03-23T16:33:34;9.60;95.30
54960;DHT22;40860;51.710;8.736;2024-03-23T16:37:37;9.60;95.90
54960;DHT22;40860;51.710;8.736;2024-03-23T16:41:40;9.60;95.80
54960;DHT22;40860;51.710;8.736;2024-03-23T16:45:42;9.40;95.00
54960;DHT22;40860;51.710;8.736;2024-03-23T16:49:45;9.10;94.30
54960;DHT22;40860;51.710;8.736;2024-03-23T16:53:47;8.90;94.80
54960;DHT22;40860;51.710;8.736;2024-03-23T16:57:51;8.70;94.80
54960;DHT22;40860;51.710;8.736;2024-03-23T17:01:53;8.50;95.50
54960;DHT22;40860;51.710;8.736;2024-03-23T17:05:55;8.30;95.60
54960;DHT22;40860;51.710;8.736;2024-03-23T17:09:57;8.20;96.40
54960;DHT22;40860;51.710;8.736;2024-03-23T17:14:00;8.10;96.60
54960;DHT22;40860;51.710;8.736;2024-03-23T17:18:03;7.90;96.60
54960;DHT22;40860;51.710;8.736;2024-03-23T17:22:05;7.80;97.00
54960;DHT22;40860;51.710;8.736;2024-03-23T17:26:06;7.60;97.20
54960;DHT22;40860;51.710;8.736;2024-03-23T17:30:12;7.50;97.30
54960;DHT22;40860;51.710;8.736;2024-03-23T17:34:17;7.40;97.50
54960;DHT22;40860;51.710;8.736;2024-03-23T17:38:19;7.30;97.40
54960;DHT22;40860;51.710;8.736;2024-03-23T17:42:21;7.30;97.30
54960;DHT22;40860;51.710;8.736;2024-03-23T17:46:25;7.20;97.30
54960;DHT22;40860;51.710;8.736;2024-03-23T17:50:27;7.10;97.70
54960;DHT22;40860;51.710;8.736;2024-03-23T17:54:30;7.10;97.60
54960;DHT22;40860;51.710;8.736;2024-03-23T17:58:32;6.90;97.70
54960;DHT22;40860;51.710;8.736;2024-03-23T18:02:36;6.90;98.00
54960;DHT22;40860;51.710;8.736;2024-03-23T18:06:38;6.80;98.10
54960;DHT22;40860;51.710;8.736;2024-03-23T18:10:40;6.60;98.50
54960;DHT22;40860;51.710;8.736;2024-03-23T18:14:42;6.60;98.90
54960;DHT22;40860;51.710;8.736;2024-03-23T18:18:46;6.50;98.90
54960;DHT22;40860;51.710;8.736;2024-03-23T18:22:48;6.40;99.00
54960;DHT22;40860;51.710;8.736;2024-03-23T18:26:50;6.40;99.30
54960;DHT22;40860;51.710;8.736;2024-03-23T18:30:56;6.30;99.40
54960;DHT22;40860;51.710;8.736;2024-03-23T18:35:00;6.30;99.60
54960;DHT22;40860;51.710;8.736;2024-03-23T18:39:02;6.30;99.90
54960;DHT22;40860;51.710;8.736;2024-03-23T18:43:04;6.30;99.90
54960;DHT22;40860;51.710;8.736;2024-03-23T18:47:06;6.30;99.90
54960;DHT22;40860;51.710;8.736;2024-03-23T18:51:10;6.30;99.70
54960;DHT22;40860;51.710;8.736;2024-03-23T18:55:12;6.40;99.90
54960;DHT22;40860;51.710;8.736;2024-03-23T18:59:14;6.40;99.90
54960;DHT22;40860;51.710;8.736;2024-03-23T19:03:16;6.40;99.90
54960;DHT22;40860;51.710;8.736;2024-03-23T19:07:20;6.20;99.90
54960;DHT22;40860;51.710;8.736;2024-03-23T19:11:22;6.00;99.90
54960;DHT22;40860;51.710;8.736;2024-03-23T19:15:23;5.80;99.90
54960;DHT22;40860;51.710;8.736;2024-03-23T19:19:27;5.40;99.90
54960;DHT22;40860;51.710;8.736;2024-03-23T19:23:30;5.10;99.90
54960;DHT22;40860;51.710;8.736;2024-03-23T19:27:32;4.90;99.90
54960;DHT22;40860;51.710;8.736;2024-03-23T19:31:36;4.90;99.90
54960;DHT22;40860;51.710;8.736;2024-03-23T19:35:39;4.80;99.90
54960;DHT22;40860;51.710;8.736;2024-03-23T19:39:42;4.70;99.90
54960;DHT22;40860;51.710;8.736;2024-03-23T19:43:44;4.60;99.90
54960;DHT22;40860;51.710;8.736;2024-03-23T19:47:46;4.50;99.90
54960;DHT22;40860;51.710;8.736;2024-03-23T19:51:48;4.50;99.90
54960;DHT22;40860;51.710;8.736;2024-03-23T19:55:55;4.40;99.90
54960;DHT22;40860;51.710;8.736;2024-03-23T19:59:58;4.30;99.90
54960;DHT22;40860;51.710;8.736;2024-03-23T20:04:00;4.20;99.90
54960;DHT22;40860;51.710;8.736;2024-03-23T20:08:04;4.10;99.90
54960;DHT22;40860;51.710;8.736;2024-03-23T20:12:11;4.10;99.90
54960;DHT22;40860;51.710;8.736;2024-03-23T20:16:13;4.10;99.90
54960;DHT22;40860;51.710;8.736;2024-03-23T20:20:15;4.10;99.90
54960;DHT22;40860;51.710;8.736;2024-03-23T20:24:18;4.00;99.90
54960;DHT22;40860;51.710;8.736;2024-03-23T20:28:22;4.00;99.90
54960;DHT22;40860;51.710;8.736;2024-03-23T20:32:24;4.00;99.90
54960;DHT22;40860;51.710;8.736;2024-03-23T20:36:26;3.90;99.90
54960;DHT22;40860;51.710;8.736;2024-03-23T20:40:28;3.80;99.90
54960;DHT22;40860;51.710;8.736;2024-03-23T20:44:32;3.80;99.90
54960;DHT22;40860;51.710;8.736;2024-03-23T20:48:34;3.80;99.90
54960;DHT22;40860;51.710;8.736;2024-03-23T20:52:41;3.70;99.90
54960;DHT22;40860;51.710;8.736;2024-03-23T20:56:43;3.70;99.90
54960;DHT22;40860;51.710;8.736;2024-03-23T21:00:45;3.70;99.90
54960;DHT22;40860;51.710;8.736;2024-03-23T21:04:48;3.70;99.90
54960;DHT22;40860;51.710;8.736;2024-03-23T21:08:50;3.70;99.90
54960;DHT22;40860;51.710;8.736;2024-03-23T21:12:52;3.70;99.90
54960;DHT22;40860;51.710;8.736;2024-03-23T21:16:55;3.80;99.90
54960;DHT22;40860;51.710;8.736;2024-03-23T21:20:59;3.90;99.90
54960;DHT22;40860;51.710;8.736;2024-03-23T21:25:01;3.90;99.90
54960;DHT22;40860;51.710;8.736;2024-03-23T21:29:03;4.00;99.90
54960;DHT22;40860;51.710;8.736;2024-03-23T21:33:07;4.00;99.90
54960;DHT22;40860;51.710;8.736;2024-03-23T21:37:10;4.10;99.90
54960;DHT22;40860;51.710;8.736;2024-03-23T21:41:12;4.00;99.90
54960;DHT22;40860;51.710;8.736;2024-03-23T21:45:14;4.10;99.90
54960;DHT22;40860;51.710;8.736;2024-03-23T21:49:18;4.10;99.90
54960;DHT22;40860;51.710;8.736;2024-03-23T21:53:20;4.20;99.90
54960;DHT22;40860;51.710;8.736;2024-03-23T21:57:22;4.20;99.90
54960;DHT22;40860;51.710;8.736;2024-03-23T22:01:25;4.20;99.90
54960;DHT22;40860;51.710;8.736;2024-03-23T22:05:28;4.30;99.90
54960;DHT22;40860;51.710;8.736;2024-03-23T22:09:30;4.30;99.90
54960;DHT22;40860;51.710;8.736;2024-03-23T22:13:32;4.40;99.90
54960;DHT22;40860;51.710;8.736;2024-03-23T22:17:34;4.40;99.90
54960;DHT22;40860;51.710;8.736;2024-03-23T22:21:38;4.40;99.90
54960;DHT22;40860;51.710;8.736;2024-03-23T22:25:47;4.50;99.90
54960;DHT22;40860;51.710;8.736;2024-03-23T22:29:49;4.40;99.90
54960;DHT22;40860;51.710;8.736;2024-03-23T22:33:52;4.50;99.90
54960;DHT22;40860;51.710;8.736;2024-03-23T22:37:55;4.50;99.90
54960;DHT22;40860;51.710;8.736;2024-03-23T22:41:57;4.60;99.90
54960;DHT22;40860;51.710;8.736;2024-03-23T22:46:00;4.60;99.90
54960;DHT22;40860;51.710;8.736;2024-03-23T22:50:03;4.60;99.90
54960;DHT22;40860;51.710;8.736;2024-03-23T22:54:07;4.60;99.90
54960;DHT22;40860;51.710;8.736;2024-03-23T22:58:08;4.60;99.90
54960;DHT22;40860;51.710;8.736;2024-03-23T23:02:10;4.70;99.90
54960;DHT22;40860;51.710;8.736;2024-03-23T23:06:12;4.70;99.90
54960;DHT22;40860;51.710;8.736;2024-03-23T23:10:15;4.70;99.90
54960;DHT22;40860;51.710;8.736;2024-03-23T23:14:16;4.70;99.90
54960;DHT22;40860;51.710;8.736;2024-03-23T23:18:18;4.60;99.90
54960;DHT22;40860;51.710;8.736;2024-03-23T23:22:20;4.60;99.90
54960;DHT22;40860;51.710;8.736;2024-03-23T23:26:24;4.50;99.90
54960;DHT22;40860;51.710;8.736;2024-03-23T23:30:25;4.40;99.90
54960;DHT22;40860;51.710;8.736;2024-03-23T23:34:27;4.40;99.90
54960;DHT22;40860;51.710;8.736;2024-03-23T23:38:29;4.30;99.90
54960;DHT22;40860;51.710;8.736;2024-03-23T23:42:33;4.30;99.90
54960;DHT22;40860;51.710;8.736;2024-03-23T23:46:34;4.20;99.90
54960;DHT22;40860;51.710;8.736;2024-03-23T23:50:36;4.20;99.90
54960;DHT22;40860;51.710;8.736;2024-03-23T23:54:38;4.10;99.90
54960;DHT22;40860;51.710;8.736;2024-03-23T23:58:41;4.10;99.90
